createdAt,value
2023-04-13T00:11:18.547Z,2.60
2023-04-13T00:29:57.380Z,4.00
2023-04-13T00:48:36.433Z,4.10
2023-04-13T01:07:16.537Z,3.40
2023-04-13T01:25:54.142Z,5.00
2023-04-13T02:03:12.588Z,3.90
2023-04-13T02:40:29.124Z,6.70
2023-04-13T02:59:06.224Z,5.60
2023-04-13T03:17:46.480Z,4.80
2023-04-13T03:36:24.869Z,7.60
2023-04-13T03:55:03.969Z,7.40
2023-04-13T04:13:43.858Z,6.20
2023-04-13T05:09:44.177Z,7.60
2023-04-13T05:28:24.702Z,10.50
2023-04-13T05:47:03.801Z,9.40
2023-04-13T06:05:43.675Z,6.00
2023-04-13T06:24:23.700Z,5.90
2023-04-13T06:43:02.760Z,4.80
2023-04-13T07:20:22.364Z,2.60
2023-04-13T07:39:01.013Z,1.40
2023-04-13T08:16:11.290Z,0.60
2023-04-13T08:34:50.359Z,0.50
2023-04-13T09:12:16.006Z,0.80
2023-04-13T09:30:47.968Z,0.70
2023-04-13T10:08:07.732Z,0.30
2023-04-13T10:26:46.100Z,0.50
2023-04-13T10:45:25.034Z,0.40
2023-04-13T11:04:05.800Z,0.70
2023-04-13T11:22:47.278Z,0.40
2023-04-13T11:41:23.480Z,0.40
2023-04-13T12:18:39.971Z,0.60
2023-04-13T12:37:15.693Z,1.10
2023-04-13T13:14:35.637Z,0.30
2023-04-13T13:33:15.299Z,2.10
2023-04-13T13:51:54.668Z,0.70
2023-04-13T14:10:33.757Z,0.40
2023-04-13T15:06:32.209Z,0.70
2023-04-13T15:25:09.061Z,2.10
2023-04-13T15:43:48.885Z,1.00
2023-04-13T16:02:31.606Z,3.90
2023-04-13T16:21:06.066Z,0.80
2023-04-13T16:39:44.649Z,1.20
2023-04-13T16:58:23.493Z,2.90
2023-04-13T17:35:40.999Z,2.20
2023-04-13T17:54:19.047Z,4.10
2023-04-13T18:12:58.481Z,3.20
2023-04-13T18:31:37.199Z,4.30
2023-04-13T18:50:16.254Z,2.20
2023-04-13T19:08:55.059Z,5.80
2023-04-13T19:27:32.455Z,5.90
2023-04-13T19:46:10.298Z,5.30
2023-04-13T20:04:49.059Z,4.40
2023-04-13T20:23:28.448Z,8.00
2023-04-13T20:42:07.217Z,6.20
2023-04-13T21:00:46.976Z,5.50
2023-04-13T21:19:25.760Z,11.20
2023-04-13T22:15:24.358Z,7.10
2023-04-13T22:34:03.827Z,3.40
2023-04-13T22:52:43.686Z,7.10
2023-04-13T23:11:23.557Z,6.40
2023-04-13T23:30:02.971Z,7.90
